sensor_id;sensor_type;location;lat;lon;timestamp;temperature;humidity
21403;DHT22;10862;51.886;17.078;2023-11-19T00:00:36;20.50;1.00
21403;DHT22;10862;51.886;17.078;2023-11-19T00:03:02;20.50;1.00
21403;DHT22;10862;51.886;17.078;2023-11-19T00:05:28;20.50;1.00
21403;DHT22;10862;51.886;17.078;2023-11-19T00:07:54;20.50;1.00
21403;DHT22;10862;51.886;17.078;2023-11-19T00:10:20;20.60;1.00
21403;DHT22;10862;51.886;17.078;2023-11-19T00:12:49;20.60;1.00
21403;DHT22;10862;51.886;17.078;2023-11-19T00:15:16;20.60;1.00
21403;DHT22;10862;51.886;17.078;2023-11-19T00:17:45;20.60;1.00
21403;DHT22;10862;51.886;17.078;2023-11-19T00:20:20;20.60;1.00
21403;DHT22;10862;51.886;17.078;2023-11-19T00:22:47;20.60;1.00
21403;DHT22;10862;51.886;17.078;2023-11-19T00:25:20;20.60;1.00
21403;DHT22;10862;51.886;17.078;2023-11-19T00:27:46;20.60;1.00
21403;DHT22;10862;51.886;17.078;2023-11-19T00:30:13;20.60;1.00
21403;DHT22;10862;51.886;17.078;2023-11-19T00:32:40;20.60;1.00
21403;DHT22;10862;51.886;17.078;2023-11-19T00:35:06;20.60;1.00
21403;DHT22;10862;51.886;17.078;2023-11-19T00:37:32;20.60;1.00
21403;DHT22;10862;51.886;17.078;2023-11-19T00:39:58;20.60;1.00
21403;DHT22;10862;51.886;17.078;2023-11-19T00:42:24;20.60;1.00
21403;DHT22;10862;51.886;17.078;2023-11-19T00:44:50;20.60;99.90
21403;DHT22;10862;51.886;17.078;2023-11-19T00:47:16;20.60;1.00
21403;DHT22;10862;51.886;17.078;2023-11-19T00:49:42;20.60;99.90
21403;DHT22;10862;51.886;17.078;2023-11-19T00:52:08;20.60;99.90
21403;DHT22;10862;51.886;17.078;2023-11-19T00:54:34;20.60;99.90
21403;DHT22;10862;51.886;17.078;2023-11-19T00:56:59;20.60;99.90
21403;DHT22;10862;51.886;17.078;2023-11-19T00:59:26;20.60;99.90
21403;DHT22;10862;51.886;17.078;2023-11-19T01:01:53;20.60;99.90
21403;DHT22;10862;51.886;17.078;2023-11-19T01:04:19;20.60;99.90
21403;DHT22;10862;51.886;17.078;2023-11-19T01:06:45;20.60;99.90
21403;DHT22;10862;51.886;17.078;2023-11-19T01:09:11;20.60;99.90
21403;DHT22;10862;51.886;17.078;2023-11-19T01:11:36;20.60;99.90
21403;DHT22;10862;51.886;17.078;2023-11-19T01:14:02;20.60;99.90
21403;DHT22;10862;51.886;17.078;2023-11-19T01:16:28;20.60;99.90
21403;DHT22;10862;51.886;17.078;2023-11-19T01:18:53;20.60;99.90
21403;DHT22;10862;51.886;17.078;2023-11-19T01:21:19;20.60;99.90
21403;DHT22;10862;51.886;17.078;2023-11-19T01:23:45;20.60;99.90
21403;DHT22;10862;51.886;17.078;2023-11-19T01:26:12;20.60;99.90
21403;DHT22;10862;51.886;17.078;2023-11-19T01:28:41;20.60;99.90
21403;DHT22;10862;51.886;17.078;2023-11-19T01:31:11;20.60;99.90
21403;DHT22;10862;51.886;17.078;2023-11-19T01:33:36;20.60;99.90
21403;DHT22;10862;51.886;17.078;2023-11-19T01:36:02;20.60;99.90
21403;DHT22;10862;51.886;17.078;2023-11-19T01:38:29;20.60;99.90
21403;DHT22;10862;51.886;17.078;2023-11-19T01:40:56;20.60;99.90
21403;DHT22;10862;51.886;17.078;2023-11-19T01:43:37;20.60;99.90
21403;DHT22;10862;51.886;17.078;2023-11-19T01:46:05;20.50;99.90
21403;DHT22;10862;51.886;17.078;2023-11-19T01:48:32;20.60;99.90
21403;DHT22;10862;51.886;17.078;2023-11-19T01:50:58;20.60;99.90
21403;DHT22;10862;51.886;17.078;2023-11-19T01:53:25;20.50;99.90
21403;DHT22;10862;51.886;17.078;2023-11-19T01:55:51;20.60;99.90
21403;DHT22;10862;51.886;17.078;2023-11-19T01:58:18;20.50;99.90
21403;DHT22;10862;51.886;17.078;2023-11-19T02:00:44;20.60;99.90
21403;DHT22;10862;51.886;17.078;2023-11-19T02:03:10;20.50;99.90
21403;DHT22;10862;51.886;17.078;2023-11-19T02:05:37;20.50;99.90
21403;DHT22;10862;51.886;17.078;2023-11-19T02:08:04;20.60;99.90
21403;DHT22;10862;51.886;17.078;2023-11-19T02:10:30;20.60;99.90
21403;DHT22;10862;51.886;17.078;2023-11-19T02:12:57;20.50;99.90
21403;DHT22;10862;51.886;17.078;2023-11-19T02:15:23;20.60;99.90
21403;DHT22;10862;51.886;17.078;2023-11-19T02:17:52;20.50;99.90
21403;DHT22;10862;51.886;17.078;2023-11-19T02:20:18;20.60;99.90
21403;DHT22;10862;51.886;17.078;2023-11-19T02:22:49;20.50;99.90
21403;DHT22;10862;51.886;17.078;2023-11-19T02:25:30;20.60;99.90
21403;DHT22;10862;51.886;17.078;2023-11-19T02:28:01;20.60;99.90
21403;DHT22;10862;51.886;17.078;2023-11-19T02:30:26;20.60;99.90
21403;DHT22;10862;51.886;17.078;2023-11-19T02:32:57;20.60;99.90
21403;DHT22;10862;51.886;17.078;2023-11-19T02:35:24;20.50;99.90
21403;DHT22;10862;51.886;17.078;2023-11-19T02:37:51;20.50;99.90
21403;DHT22;10862;51.886;17.078;2023-11-19T02:40:16;20.60;99.90
21403;DHT22;10862;51.886;17.078;2023-11-19T02:42:43;20.60;99.90
21403;DHT22;10862;51.886;17.078;2023-11-19T02:45:08;20.50;99.90
21403;DHT22;10862;51.886;17.078;2023-11-19T02:47:42;20.50;99.90
21403;DHT22;10862;51.886;17.078;2023-11-19T02:50:09;20.50;99.90
21403;DHT22;10862;51.886;17.078;2023-11-19T02:52:40;20.60;99.90
21403;DHT22;10862;51.886;17.078;2023-11-19T02:55:06;20.50;99.90
21403;DHT22;10862;51.886;17.078;2023-11-19T02:57:35;20.60;99.90
21403;DHT22;10862;51.886;17.078;2023-11-19T03:00:01;20.50;99.90
21403;DHT22;10862;51.886;17.078;2023-11-19T03:02:29;20.50;99.90
21403;DHT22;10862;51.886;17.078;2023-11-19T03:04:59;20.50;99.90
21403;DHT22;10862;51.886;17.078;2023-11-19T03:07:25;20.50;99.90
21403;DHT22;10862;51.886;17.078;2023-11-19T03:09:50;20.50;99.90
21403;DHT22;10862;51.886;17.078;2023-11-19T03:12:16;20.50;99.90
21403;DHT22;10862;51.886;17.078;2023-11-19T03:14:42;20.50;99.90
21403;DHT22;10862;51.886;17.078;2023-11-19T03:17:07;20.50;99.90
21403;DHT22;10862;51.886;17.078;2023-11-19T03:19:35;20.50;99.90
21403;DHT22;10862;51.886;17.078;2023-11-19T03:22:01;20.50;99.90
21403;DHT22;10862;51.886;17.078;2023-11-19T03:24:27;20.50;99.90
21403;DHT22;10862;51.886;17.078;2023-11-19T03:26:53;20.50;99.90
21403;DHT22;10862;51.886;17.078;2023-11-19T03:29:18;20.50;99.90
21403;DHT22;10862;51.886;17.078;2023-11-19T03:31:44;20.50;99.90
21403;DHT22;10862;51.886;17.078;2023-11-19T03:34:10;20.50;99.90
21403;DHT22;10862;51.886;17.078;2023-11-19T03:36:36;20.50;99.90
21403;DHT22;10862;51.886;17.078;2023-11-19T03:39:02;20.50;99.90
21403;DHT22;10862;51.886;17.078;2023-11-19T03:41:28;20.50;99.90
21403;DHT22;10862;51.886;17.078;2023-11-19T03:43:54;20.40;99.90
21403;DHT22;10862;51.886;17.078;2023-11-19T03:46:20;20.40;99.90
21403;DHT22;10862;51.886;17.078;2023-11-19T03:48:49;20.40;99.90
21403;DHT22;10862;51.886;17.078;2023-11-19T03:51:15;20.50;99.90
21403;DHT22;10862;51.886;17.078;2023-11-19T03:53:45;20.40;99.90
21403;DHT22;10862;51.886;17.078;2023-11-19T03:56:11;20.40;99.90
21403;DHT22;10862;51.886;17.078;2023-11-19T03:58:38;20.40;99.90
21403;DHT22;10862;51.886;17.078;2023-11-19T04:01:13;20.50;99.90
21403;DHT22;10862;51.886;17.078;2023-11-19T04:03:39;20.40;99.90
21403;DHT22;10862;51.886;17.078;2023-11-19T04:06:05;20.40;99.90
21403;DHT22;10862;51.886;17.078;2023-11-19T04:08:30;20.40;99.90
21403;DHT22;10862;51.886;17.078;2023-11-19T04:10:56;20.40;99.90
21403;DHT22;10862;51.886;17.078;2023-11-19T04:13:21;20.40;99.90
21403;DHT22;10862;51.886;17.078;2023-11-19T04:15:49;20.40;99.90
21403;DHT22;10862;51.886;17.078;2023-11-19T04:18:14;20.40;99.90
21403;DHT22;10862;51.886;17.078;2023-11-19T04:20:40;20.40;99.90
21403;DHT22;10862;51.886;17.078;2023-11-19T04:23:07;20.40;99.90
21403;DHT22;10862;51.886;17.078;2023-11-19T04:25:33;20.40;99.90
21403;DHT22;10862;51.886;17.078;2023-11-19T04:28:00;20.40;99.90
21403;DHT22;10862;51.886;17.078;2023-11-19T04:30:25;20.40;99.90
21403;DHT22;10862;51.886;17.078;2023-11-19T04:32:51;20.40;99.90
21403;DHT22;10862;51.886;17.078;2023-11-19T04:35:16;20.40;99.90
21403;DHT22;10862;51.886;17.078;2023-11-19T04:37:42;20.40;99.90
21403;DHT22;10862;51.886;17.078;2023-11-19T04:40:08;20.40;99.90
21403;DHT22;10862;51.886;17.078;2023-11-19T04:42:35;20.40;99.90
21403;DHT22;10862;51.886;17.078;2023-11-19T04:45:00;20.40;99.90
21403;DHT22;10862;51.886;17.078;2023-11-19T04:47:26;20.40;99.90
21403;DHT22;10862;51.886;17.078;2023-11-19T04:49:51;20.40;99.90
21403;DHT22;10862;51.886;17.078;2023-11-19T04:52:17;20.30;99.90
21403;DHT22;10862;51.886;17.078;2023-11-19T04:54:43;20.40;99.90
21403;DHT22;10862;51.886;17.078;2023-11-19T04:57:09;20.40;99.90
21403;DHT22;10862;51.886;17.078;2023-11-19T04:59:36;20.40;99.90
21403;DHT22;10862;51.886;17.078;2023-11-19T05:02:02;20.40;99.90
21403;DHT22;10862;51.886;17.078;2023-11-19T05:04:29;20.40;99.90
21403;DHT22;10862;51.886;17.078;2023-11-19T05:06:55;20.40;99.90
21403;DHT22;10862;51.886;17.078;2023-11-19T05:09:21;20.40;99.90
21403;DHT22;10862;51.886;17.078;2023-11-19T05:11:46;20.30;99.90
21403;DHT22;10862;51.886;17.078;2023-11-19T05:14:12;20.30;99.90
21403;DHT22;10862;51.886;17.078;2023-11-19T05:16:41;20.40;99.90
21403;DHT22;10862;51.886;17.078;2023-11-19T05:19:07;20.40;99.90
21403;DHT22;10862;51.886;17.078;2023-11-19T05:21:32;20.40;99.90
21403;DHT22;10862;51.886;17.078;2023-11-19T05:23:58;20.30;99.90
21403;DHT22;10862;51.886;17.078;2023-11-19T05:26:24;20.40;99.90
21403;DHT22;10862;51.886;17.078;2023-11-19T05:28:50;20.40;99.90
21403;DHT22;10862;51.886;17.078;2023-11-19T05:31:17;20.30;99.90
21403;DHT22;10862;51.886;17.078;2023-11-19T05:33:43;20.30;99.90
21403;DHT22;10862;51.886;17.078;2023-11-19T05:36:11;20.30;99.90
21403;DHT22;10862;51.886;17.078;2023-11-19T05:38:38;20.30;99.90
21403;DHT22;10862;51.886;17.078;2023-11-19T05:41:04;20.30;99.90
21403;DHT22;10862;51.886;17.078;2023-11-19T05:43:30;20.30;99.90
21403;DHT22;10862;51.886;17.078;2023-11-19T05:45:56;20.30;99.90
21403;DHT22;10862;51.886;17.078;2023-11-19T05:48:21;20.30;99.90
21403;DHT22;10862;51.886;17.078;2023-11-19T05:50:48;20.30;99.90
21403;DHT22;10862;51.886;17.078;2023-11-19T05:53:15;20.30;99.90
21403;DHT22;10862;51.886;17.078;2023-11-19T05:55:41;20.30;99.90
21403;DHT22;10862;51.886;17.078;2023-11-19T05:58:26;20.30;99.90
21403;DHT22;10862;51.886;17.078;2023-11-19T06:00:55;20.30;99.90
21403;DHT22;10862;51.886;17.078;2023-11-19T06:03:21;20.30;99.90
21403;DHT22;10862;51.886;17.078;2023-11-19T06:05:47;20.30;99.90
21403;DHT22;10862;51.886;17.078;2023-11-19T06:08:13;20.30;99.90
21403;DHT22;10862;51.886;17.078;2023-11-19T06:10:43;20.30;99.90
21403;DHT22;10862;51.886;17.078;2023-11-19T06:13:11;20.30;99.90
21403;DHT22;10862;51.886;17.078;2023-11-19T06:15:37;20.30;99.90
21403;DHT22;10862;51.886;17.078;2023-11-19T06:18:03;20.30;99.90
21403;DHT22;10862;51.886;17.078;2023-11-19T06:20:29;20.30;99.90
21403;DHT22;10862;51.886;17.078;2023-11-19T06:22:56;20.30;99.90
21403;DHT22;10862;51.886;17.078;2023-11-19T06:25:22;20.30;99.90
21403;DHT22;10862;51.886;17.078;2023-11-19T06:27:49;20.30;99.90
21403;DHT22;10862;51.886;17.078;2023-11-19T06:30:15;20.30;99.90
21403;DHT22;10862;51.886;17.078;2023-11-19T06:32:40;20.30;99.90
21403;DHT22;10862;51.886;17.078;2023-11-19T06:35:06;20.30;99.90
21403;DHT22;10862;51.886;17.078;2023-11-19T06:37:32;20.30;99.90
21403;DHT22;10862;51.886;17.078;2023-11-19T06:39:58;20.30;99.90
21403;DHT22;10862;51.886;17.078;2023-11-19T06:42:24;20.30;99.90
21403;DHT22;10862;51.886;17.078;2023-11-19T06:44:50;20.30;99.90
21403;DHT22;10862;51.886;17.078;2023-11-19T06:47:17;20.30;99.90
21403;DHT22;10862;51.886;17.078;2023-11-19T06:49:44;20.30;99.90
21403;DHT22;10862;51.886;17.078;2023-11-19T06:52:10;20.30;99.90
21403;DHT22;10862;51.886;17.078;2023-11-19T06:54:35;20.30;99.90
21403;DHT22;10862;51.886;17.078;2023-11-19T06:57:01;20.30;99.90
21403;DHT22;10862;51.886;17.078;2023-11-19T06:59:28;20.30;99.90
21403;DHT22;10862;51.886;17.078;2023-11-19T07:01:55;20.30;99.90
21403;DHT22;10862;51.886;17.078;2023-11-19T07:04:21;20.30;99.90
21403;DHT22;10862;51.886;17.078;2023-11-19T07:06:46;20.30;99.90
21403;DHT22;10862;51.886;17.078;2023-11-19T07:09:13;20.40;99.90
21403;DHT22;10862;51.886;17.078;2023-11-19T07:11:40;20.30;99.90
21403;DHT22;10862;51.886;17.078;2023-11-19T07:14:09;20.30;99.90
21403;DHT22;10862;51.886;17.078;2023-11-19T07:16:35;20.40;99.90
21403;DHT22;10862;51.886;17.078;2023-11-19T07:19:05;20.40;99.90
21403;DHT22;10862;51.886;17.078;2023-11-19T07:21:31;20.30;99.90
21403;DHT22;10862;51.886;17.078;2023-11-19T07:23:58;20.30;99.90
21403;DHT22;10862;51.886;17.078;2023-11-19T07:26:23;20.40;99.90
21403;DHT22;10862;51.886;17.078;2023-11-19T07:28:49;20.40;99.90
21403;DHT22;10862;51.886;17.078;2023-11-19T07:31:15;20.40;99.90
21403;DHT22;10862;51.886;17.078;2023-11-19T07:33:41;20.30;99.90
21403;DHT22;10862;51.886;17.078;2023-11-19T07:36:10;20.30;99.90
21403;DHT22;10862;51.886;17.078;2023-11-19T07:38:36;20.30;99.90
21403;DHT22;10862;51.886;17.078;2023-11-19T07:41:02;20.30;99.90
21403;DHT22;10862;51.886;17.078;2023-11-19T07:43:28;20.30;99.90
21403;DHT22;10862;51.886;17.078;2023-11-19T07:45:53;20.30;99.90
21403;DHT22;10862;51.886;17.078;2023-11-19T07:48:19;20.30;99.90
21403;DHT22;10862;51.886;17.078;2023-11-19T07:50:49;20.30;99.90
21403;DHT22;10862;51.886;17.078;2023-11-19T07:53:18;20.30;99.90
21403;DHT22;10862;51.886;17.078;2023-11-19T07:55:44;20.30;99.90
21403;DHT22;10862;51.886;17.078;2023-11-19T07:58:10;20.30;99.90
21403;DHT22;10862;51.886;17.078;2023-11-19T08:00:36;20.30;99.90
21403;DHT22;10862;51.886;17.078;2023-11-19T08:03:03;20.30;99.90
21403;DHT22;10862;51.886;17.078;2023-11-19T08:05:30;20.30;99.90
21403;DHT22;10862;51.886;17.078;2023-11-19T08:07:56;20.30;99.90
21403;DHT22;10862;51.886;17.078;2023-11-19T08:10:21;20.30;99.90
21403;DHT22;10862;51.886;17.078;2023-11-19T08:12:48;20.30;99.90
21403;DHT22;10862;51.886;17.078;2023-11-19T08:15:14;20.30;99.90
21403;DHT22;10862;51.886;17.078;2023-11-19T08:17:41;20.40;99.90
21403;DHT22;10862;51.886;17.078;2023-11-19T08:20:07;20.30;99.90
21403;DHT22;10862;51.886;17.078;2023-11-19T08:22:36;20.30;99.90
21403;DHT22;10862;51.886;17.078;2023-11-19T08:25:05;20.30;99.90
21403;DHT22;10862;51.886;17.078;2023-11-19T08:27:31;20.30;99.90
21403;DHT22;10862;51.886;17.078;2023-11-19T08:29:57;20.30;99.90
21403;DHT22;10862;51.886;17.078;2023-11-19T08:32:24;20.30;99.90
21403;DHT22;10862;51.886;17.078;2023-11-19T08:34:49;20.30;99.90
21403;DHT22;10862;51.886;17.078;2023-11-19T08:37:15;20.30;99.90
21403;DHT22;10862;51.886;17.078;2023-11-19T08:39:43;20.30;99.90
21403;DHT22;10862;51.886;17.078;2023-11-19T08:42:09;20.30;99.90
21403;DHT22;10862;51.886;17.078;2023-11-19T08:44:34;20.30;99.90
21403;DHT22;10862;51.886;17.078;2023-11-19T08:47:00;20.40;99.90
21403;DHT22;10862;51.886;17.078;2023-11-19T08:49:26;20.40;99.90
21403;DHT22;10862;51.886;17.078;2023-11-19T08:51:51;20.40;99.90
21403;DHT22;10862;51.886;17.078;2023-11-19T08:54:17;20.40;99.90
21403;DHT22;10862;51.886;17.078;2023-11-19T08:56:42;20.30;99.90
21403;DHT22;10862;51.886;17.078;2023-11-19T08:59:08;20.40;99.90
21403;DHT22;10862;51.886;17.078;2023-11-19T09:01:34;20.30;99.90
21403;DHT22;10862;51.886;17.078;2023-11-19T09:03:59;20.30;99.90
21403;DHT22;10862;51.886;17.078;2023-11-19T09:06:25;20.40;99.90
21403;DHT22;10862;51.886;17.078;2023-11-19T09:08:51;20.30;99.90
21403;DHT22;10862;51.886;17.078;2023-11-19T09:11:16;20.30;1.00
21403;DHT22;10862;51.886;17.078;2023-11-19T09:13:42;20.30;1.00
21403;DHT22;10862;51.886;17.078;2023-11-19T09:16:08;20.30;1.00
21403;DHT22;10862;51.886;17.078;2023-11-19T09:18:34;20.30;1.00
21403;DHT22;10862;51.886;17.078;2023-11-19T09:21:00;20.40;1.00
21403;DHT22;10862;51.886;17.078;2023-11-19T09:23:26;20.30;1.00
21403;DHT22;10862;51.886;17.078;2023-11-19T09:25:53;20.30;1.00
21403;DHT22;10862;51.886;17.078;2023-11-19T09:28:19;20.30;1.00
21403;DHT22;10862;51.886;17.078;2023-11-19T09:30:44;20.30;1.00
21403;DHT22;10862;51.886;17.078;2023-11-19T09:33:10;20.40;1.00
21403;DHT22;10862;51.886;17.078;2023-11-19T09:35:35;20.40;1.00
21403;DHT22;10862;51.886;17.078;2023-11-19T09:38:01;20.40;1.00
21403;DHT22;10862;51.886;17.078;2023-11-19T09:40:27;20.40;1.00
21403;DHT22;10862;51.886;17.078;2023-11-19T09:42:54;20.40;1.00
21403;DHT22;10862;51.886;17.078;2023-11-19T09:45:21;20.30;1.00
21403;DHT22;10862;51.886;17.078;2023-11-19T09:47:47;20.30;1.00
21403;DHT22;10862;51.886;17.078;2023-11-19T09:50:19;20.30;1.00
21403;DHT22;10862;51.886;17.078;2023-11-19T09:52:48;20.30;1.00
21403;DHT22;10862;51.886;17.078;2023-11-19T09:55:15;20.30;1.00
21403;DHT22;10862;51.886;17.078;2023-11-19T09:57:41;20.30;1.00
21403;DHT22;10862;51.886;17.078;2023-11-19T10:00:10;20.30;1.00
21403;DHT22;10862;51.886;17.078;2023-11-19T10:02:37;20.30;1.00
21403;DHT22;10862;51.886;17.078;2023-11-19T10:05:06;20.30;1.00
21403;DHT22;10862;51.886;17.078;2023-11-19T10:07:33;20.30;1.00
21403;DHT22;10862;51.886;17.078;2023-11-19T10:10:02;20.30;1.00
21403;DHT22;10862;51.886;17.078;2023-11-19T10:12:31;20.20;1.00
21403;DHT22;10862;51.886;17.078;2023-11-19T10:14:57;20.20;1.00
21403;DHT22;10862;51.886;17.078;2023-11-19T10:17:33;20.20;1.00
21403;DHT22;10862;51.886;17.078;2023-11-19T10:19:59;20.20;1.00
21403;DHT22;10862;51.886;17.078;2023-11-19T10:22:25;20.20;1.00
21403;DHT22;10862;51.886;17.078;2023-11-19T10:24:52;20.20;1.00
21403;DHT22;10862;51.886;17.078;2023-11-19T10:27:17;20.20;1.00
21403;DHT22;10862;51.886;17.078;2023-11-19T10:29:47;20.10;1.00
21403;DHT22;10862;51.886;17.078;2023-11-19T10:32:13;20.20;1.00
21403;DHT22;10862;51.886;17.078;2023-11-19T10:34:40;20.20;1.00
21403;DHT22;10862;51.886;17.078;2023-11-19T10:37:07;20.10;1.00
21403;DHT22;10862;51.886;17.078;2023-11-19T10:39:51;20.10;1.00
21403;DHT22;10862;51.886;17.078;2023-11-19T10:42:18;20.20;1.00
21403;DHT22;10862;51.886;17.078;2023-11-19T10:44:44;20.10;1.00
21403;DHT22;10862;51.886;17.078;2023-11-19T10:47:10;20.10;1.00
21403;DHT22;10862;51.886;17.078;2023-11-19T10:49:37;20.10;1.00
21403;DHT22;10862;51.886;17.078;2023-11-19T10:52:05;20.10;1.00
21403;DHT22;10862;51.886;17.078;2023-11-19T10:54:31;20.10;99.90
21403;DHT22;10862;51.886;17.078;2023-11-19T10:57:01;20.10;99.90
21403;DHT22;10862;51.886;17.078;2023-11-19T10:59:31;20.10;99.90
21403;DHT22;10862;51.886;17.078;2023-11-19T11:02:03;20.10;99.90
21403;DHT22;10862;51.886;17.078;2023-11-19T11:04:33;20.10;99.90
21403;DHT22;10862;51.886;17.078;2023-11-19T11:07:01;20.00;99.90
21403;DHT22;10862;51.886;17.078;2023-11-19T11:09:27;20.00;99.90
21403;DHT22;10862;51.886;17.078;2023-11-19T11:11:54;20.10;99.90
21403;DHT22;10862;51.886;17.078;2023-11-19T11:14:24;20.10;99.90
21403;DHT22;10862;51.886;17.078;2023-11-19T11:16:51;20.00;99.90
21403;DHT22;10862;51.886;17.078;2023-11-19T11:19:18;20.00;99.90
21403;DHT22;10862;51.886;17.078;2023-11-19T11:21:49;20.10;99.90
21403;DHT22;10862;51.886;17.078;2023-11-19T11:38:22;20.00;1.00
21403;DHT22;10862;51.886;17.078;2023-11-19T11:41:19;20.00;1.00
21403;DHT22;10862;51.886;17.078;2023-11-19T11:49:05;20.10;1.00
21403;DHT22;10862;51.886;17.078;2023-11-19T11:57:08;20.10;1.00
21403;DHT22;10862;51.886;17.078;2023-11-19T11:59:42;20.10;1.00
21403;DHT22;10862;51.886;17.078;2023-11-19T12:02:09;20.10;1.00
21403;DHT22;10862;51.886;17.078;2023-11-19T12:04:35;20.10;47.30
21403;DHT22;10862;51.886;17.078;2023-11-19T12:07:05;20.20;99.90
21403;DHT22;10862;51.886;17.078;2023-11-19T12:09:52;20.20;99.90
21403;DHT22;10862;51.886;17.078;2023-11-19T12:12:22;20.20;99.90
21403;DHT22;10862;51.886;17.078;2023-11-19T12:15:07;20.20;99.90
21403;DHT22;10862;51.886;17.078;2023-11-19T12:17:43;20.20;99.90
21403;DHT22;10862;51.886;17.078;2023-11-19T12:20:12;20.20;99.90
21403;DHT22;10862;51.886;17.078;2023-11-19T12:22:39;20.20;1.00
21403;DHT22;10862;51.886;17.078;2023-11-19T12:25:06;20.20;1.00
21403;DHT22;10862;51.886;17.078;2023-11-19T12:27:33;20.30;1.00
21403;DHT22;10862;51.886;17.078;2023-11-19T12:30:00;20.30;1.00
21403;DHT22;10862;51.886;17.078;2023-11-19T12:32:25;20.30;1.00
21403;DHT22;10862;51.886;17.078;2023-11-19T12:34:51;20.30;1.00
21403;DHT22;10862;51.886;17.078;2023-11-19T12:37:17;20.30;1.00
21403;DHT22;10862;51.886;17.078;2023-11-19T12:39:42;20.30;1.00
21403;DHT22;10862;51.886;17.078;2023-11-19T12:42:08;20.30;34.20
21403;DHT22;10862;51.886;17.078;2023-11-19T12:44:34;20.30;93.00
21403;DHT22;10862;51.886;17.078;2023-11-19T12:47:04;20.30;99.90
21403;DHT22;10862;51.886;17.078;2023-11-19T12:49:34;20.40;99.90
21403;DHT22;10862;51.886;17.078;2023-11-19T12:52:00;20.40;99.90
21403;DHT22;10862;51.886;17.078;2023-11-19T12:54:33;20.40;99.90
21403;DHT22;10862;51.886;17.078;2023-11-19T12:56:59;20.40;99.90
21403;DHT22;10862;51.886;17.078;2023-11-19T12:59:24;20.40;99.90
21403;DHT22;10862;51.886;17.078;2023-11-19T13:01:58;20.40;99.90
21403;DHT22;10862;51.886;17.078;2023-11-19T13:04:31;20.30;99.90
21403;DHT22;10862;51.886;17.078;2023-11-19T13:06:57;20.30;99.90
21403;DHT22;10862;51.886;17.078;2023-11-19T13:09:23;20.30;1.00
21403;DHT22;10862;51.886;17.078;2023-11-19T13:11:54;20.30;1.00
21403;DHT22;10862;51.886;17.078;2023-11-19T13:14:21;20.30;1.00
21403;DHT22;10862;51.886;17.078;2023-11-19T13:16:46;20.30;1.00
21403;DHT22;10862;51.886;17.078;2023-11-19T13:19:16;20.30;1.00
21403;DHT22;10862;51.886;17.078;2023-11-19T13:21:42;20.30;1.00
21403;DHT22;10862;51.886;17.078;2023-11-19T13:24:07;20.30;1.00
21403;DHT22;10862;51.886;17.078;2023-11-19T13:26:33;20.30;1.00
21403;DHT22;10862;51.886;17.078;2023-11-19T13:29:00;20.30;1.00
21403;DHT22;10862;51.886;17.078;2023-11-19T13:31:26;20.30;1.00
21403;DHT22;10862;51.886;17.078;2023-11-19T13:33:51;20.30;1.00
21403;DHT22;10862;51.886;17.078;2023-11-19T13:36:17;20.30;99.90
21403;DHT22;10862;51.886;17.078;2023-11-19T13:38:43;20.30;99.90
21403;DHT22;10862;51.886;17.078;2023-11-19T13:41:09;20.20;99.90
21403;DHT22;10862;51.886;17.078;2023-11-19T13:43:37;20.30;99.90
21403;DHT22;10862;51.886;17.078;2023-11-19T13:46:03;20.20;99.90
21403;DHT22;10862;51.886;17.078;2023-11-19T13:48:29;20.20;99.90
21403;DHT22;10862;51.886;17.078;2023-11-19T13:50:55;20.20;99.90
21403;DHT22;10862;51.886;17.078;2023-11-19T13:53:21;20.20;99.90
21403;DHT22;10862;51.886;17.078;2023-11-19T13:55:47;20.20;99.90
21403;DHT22;10862;51.886;17.078;2023-11-19T13:58:13;20.20;99.90
21403;DHT22;10862;51.886;17.078;2023-11-19T14:00:39;20.10;99.90
21403;DHT22;10862;51.886;17.078;2023-11-19T14:03:05;20.20;99.90
21403;DHT22;10862;51.886;17.078;2023-11-19T14:05:31;20.10;99.90
21403;DHT22;10862;51.886;17.078;2023-11-19T14:07:57;20.20;99.90
21403;DHT22;10862;51.886;17.078;2023-11-19T14:10:23;20.10;99.90
21403;DHT22;10862;51.886;17.078;2023-11-19T14:12:49;20.10;99.90
21403;DHT22;10862;51.886;17.078;2023-11-19T14:15:17;20.10;99.90
21403;DHT22;10862;51.886;17.078;2023-11-19T14:17:43;20.10;56.50
21403;DHT22;10862;51.886;17.078;2023-11-19T14:20:09;20.10;15.30
21403;DHT22;10862;51.886;17.078;2023-11-19T14:22:42;20.10;1.00
21403;DHT22;10862;51.886;17.078;2023-11-19T14:25:09;20.10;1.00
21403;DHT22;10862;51.886;17.078;2023-11-19T14:27:39;20.00;1.00
21403;DHT22;10862;51.886;17.078;2023-11-19T14:30:06;20.00;1.00
21403;DHT22;10862;51.886;17.078;2023-11-19T14:32:33;20.00;1.00
21403;DHT22;10862;51.886;17.078;2023-11-19T14:35:00;20.00;1.00
21403;DHT22;10862;51.886;17.078;2023-11-19T14:37:26;20.00;1.00
21403;DHT22;10862;51.886;17.078;2023-11-19T14:39:51;20.00;1.00
21403;DHT22;10862;51.886;17.078;2023-11-19T14:42:17;20.00;1.00
21403;DHT22;10862;51.886;17.078;2023-11-19T14:44:43;20.00;1.00
21403;DHT22;10862;51.886;17.078;2023-11-19T14:47:09;20.00;1.00
21403;DHT22;10862;51.886;17.078;2023-11-19T14:49:35;20.00;1.00
21403;DHT22;10862;51.886;17.078;2023-11-19T14:52:05;20.00;1.00
21403;DHT22;10862;51.886;17.078;2023-11-19T14:54:30;20.00;1.00
21403;DHT22;10862;51.886;17.078;2023-11-19T14:56:56;20.00;1.00
21403;DHT22;10862;51.886;17.078;2023-11-19T14:59:22;20.00;1.00
21403;DHT22;10862;51.886;17.078;2023-11-19T15:01:48;20.00;1.00
21403;DHT22;10862;51.886;17.078;2023-11-19T15:04:13;20.00;1.00
21403;DHT22;10862;51.886;17.078;2023-11-19T15:06:39;19.90;1.00
21403;DHT22;10862;51.886;17.078;2023-11-19T15:09:05;20.00;1.00
21403;DHT22;10862;51.886;17.078;2023-11-19T15:11:33;19.90;1.00
21403;DHT22;10862;51.886;17.078;2023-11-19T15:13:58;19.90;1.00
21403;DHT22;10862;51.886;17.078;2023-11-19T15:16:25;19.90;1.00
21403;DHT22;10862;51.886;17.078;2023-11-19T15:18:57;19.90;1.00
21403;DHT22;10862;51.886;17.078;2023-11-19T15:21:25;19.90;1.00
21403;DHT22;10862;51.886;17.078;2023-11-19T15:23:51;19.90;1.00
21403;DHT22;10862;51.886;17.078;2023-11-19T15:26:17;19.90;1.00
21403;DHT22;10862;51.886;17.078;2023-11-19T15:28:43;19.90;1.00
21403;DHT22;10862;51.886;17.078;2023-11-19T15:31:09;19.90;1.00
21403;DHT22;10862;51.886;17.078;2023-11-19T15:33:35;19.90;1.00
21403;DHT22;10862;51.886;17.078;2023-11-19T15:36:01;19.90;1.00
21403;DHT22;10862;51.886;17.078;2023-11-19T15:38:28;19.90;1.00
21403;DHT22;10862;51.886;17.078;2023-11-19T15:40:54;19.90;1.00
21403;DHT22;10862;51.886;17.078;2023-11-19T15:43:20;19.90;1.00